Time;durP1;ratioP1;P1;durP2;ratioP2;P2;SDS_P1;SDS_P2;PMS_P1;PMS_P2;Temp;Humidity;BMP_temperature;BMP_pressure;BME280_temperature;BME280_humidity;BME280_pressure;Samples;Min_cycle;Max_cycle;Signal;HPM_P1;HPM_P2
2023/12/24 00:01:12;;;;;;;3.15;2.83;;;9.60;99.90;;;;;;5049793;28;20746;-67
2023/12/24 00:03:39;;;;;;;2.90;2.20;;;9.60;99.90;;;;;;5047414;28;20614;-68
2023/12/24 00:06:07;;;;;;;2.65;2.25;;;9.60;99.90;;;;;;5047754;28;20248;-67
2023/12/24 00:08:35;;;;;;;3.10;2.20;;;9.60;99.90;;;;;;5048192;28;20656;-68
2023/12/24 00:11:03;;;;;;;2.95;2.40;;;9.60;99.90;;;;;;5053002;28;20209;-68
2023/12/24 00:13:31;;;;;;;2.30;1.83;;;9.60;99.90;;;;;;5054343;28;20213;-68
2023/12/24 00:15:58;;;;;;;3.25;2.65;;;9.60;99.90;;;;;;5052277;28;20249;-69
2023/12/24 00:18:25;;;;;;;2.60;2.40;;;9.60;99.90;;;;;;5053579;28;20224;-69
2023/12/24 00:20:52;;;;;;;4.35;2.65;;;9.60;99.90;;;;;;5053025;28;20265;-69
2023/12/24 00:23:19;;;;;;;2.10;1.95;;;9.60;99.90;;;;;;5053203;28;20235;-68
2023/12/24 00:25:46;;;;;;;5.47;2.50;;;9.60;99.90;;;;;;5055993;28;20243;-68
2023/12/24 00:28:14;;;;;;;3.72;2.90;;;9.60;99.90;;;;;;5052053;28;20251;-68
2023/12/24 00:30:41;;;;;;;2.80;2.33;;;9.70;99.90;;;;;;5053197;28;20207;-68
2023/12/24 00:33:08;;;;;;;4.63;2.70;;;9.70;99.90;;;;;;5053048;28;20232;-68
2023/12/24 00:35:35;;;;;;;2.90;2.38;;;9.60;99.90;;;;;;5052758;28;20569;-69
2023/12/24 00:38:02;;;;;;;4.80;4.20;;;9.50;99.90;;;;;;5053603;28;20701;-67
2023/12/24 00:40:29;;;;;;;3.38;3.00;;;9.60;99.90;;;;;;5047058;28;20228;-67
2023/12/24 00:42:55;;;;;;;2.58;2.38;;;9.60;99.90;;;;;;5052755;28;20717;-68
2023/12/24 00:45:23;;;;;;;3.13;2.63;;;9.60;99.90;;;;;;5051946;28;20243;-68
2023/12/24 00:47:50;;;;;;;3.10;2.80;;;9.60;99.90;;;;;;5052756;28;20494;-68
2023/12/24 00:50:17;;;;;;;2.83;2.55;;;9.60;99.90;;;;;;5052591;28;20273;-68
2023/12/24 00:52:46;;;;;;;6.85;2.97;;;9.60;99.90;;;;;;5054455;28;20231;-68
2023/12/24 00:55:13;;;;;;;4.90;3.40;;;9.60;99.90;;;;;;5050499;28;20201;-69
2023/12/24 00:57:40;;;;;;;3.90;3.47;;;9.60;99.90;;;;;;5052926;28;20585;-68
2023/12/24 01:00:08;;;;;;;4.43;2.95;;;9.70;99.90;;;;;;5052252;28;20240;-68
2023/12/24 01:02:37;;;;;;;5.85;2.95;;;9.60;99.90;;;;;;5050114;28;20243;-70
2023/12/24 01:05:06;;;;;;;3.65;3.33;;;9.60;99.90;;;;;;5051814;28;20214;-67
2023/12/24 01:07:33;;;;;;;3.95;3.13;;;9.60;99.90;;;;;;5051261;28;20259;-69
2023/12/24 01:10:00;;;;;;;5.45;3.42;;;9.60;99.90;;;;;;5054425;28;20253;-68
2023/12/24 01:12:27;;;;;;;3.40;3.10;;;9.50;99.90;;;;;;5053954;28;20197;-68
2023/12/24 01:14:54;;;;;;;4.93;3.55;;;9.50;99.90;;;;;;5053936;28;20320;-69
2023/12/24 01:17:21;;;;;;;4.90;3.17;;;9.60;99.90;;;;;;5052592;28;20227;-69
2023/12/24 01:19:49;;;;;;;4.28;3.42;;;9.60;99.90;;;;;;5048711;28;20191;-68
2023/12/24 01:22:16;;;;;;;3.45;3.15;;;9.60;99.90;;;;;;5049283;28;20250;-67
2023/12/24 01:24:43;;;;;;;3.67;2.80;;;9.50;99.90;;;;;;5053727;28;20243;-69
2023/12/24 01:27:10;;;;;;;5.03;3.25;;;9.60;99.90;;;;;;5051727;28;20268;-68
2023/12/24 01:29:37;;;;;;;4.82;3.80;;;9.60;99.90;;;;;;5053634;28;20617;-68
2023/12/24 01:32:04;;;;;;;3.28;2.97;;;9.60;99.90;;;;;;5047414;28;20240;-68
2023/12/24 01:34:31;;;;;;;3.08;2.78;;;9.60;99.90;;;;;;5051707;28;20246;-68
2023/12/24 01:37:00;;;;;;;6.47;2.78;;;9.60;99.90;;;;;;5048147;28;20224;-68
2023/12/24 01:39:26;;;;;;;4.00;3.60;;;9.60;99.90;;;;;;5044428;28;20658;-68
2023/12/24 01:41:53;;;;;;;5.80;3.75;;;9.60;99.90;;;;;;5052879;28;20254;-68
2023/12/24 01:44:20;;;;;;;5.13;3.63;;;9.50;99.90;;;;;;5051722;28;20602;-68
2023/12/24 01:46:47;;;;;;;6.50;3.90;;;9.50;99.90;;;;;;5050041;28;20259;-69
2023/12/24 01:49:16;;;;;;;4.55;3.40;;;9.50;99.90;;;;;;5046381;28;20595;-68
2023/12/24 01:51:43;;;;;;;6.30;4.05;;;9.50;99.90;;;;;;5045331;28;20258;-67
2023/12/24 01:54:12;;;;;;;7.38;4.38;;;9.50;99.90;;;;;;5048634;28;20292;-68
2023/12/24 01:56:40;;;;;;;4.10;3.70;;;9.50;99.90;;;;;;5045846;28;20244;-70
2023/12/24 03:16:27;;;;;;;5.85;3.80;;;9.50;99.90;;;;;;4917259;29;20738;-82
2023/12/24 05:08:40;;;;;;;2.95;2.75;;;9.50;99.90;;;;;;5014629;28;20230;-82
2023/12/24 05:18:29;;;;;;;5.30;3.63;;;9.40;99.90;;;;;;4998352;28;20324;-83
2023/12/24 05:25:27;;;;;;;3.30;3.00;;;9.60;99.90;;;;;;4983581;28;20207;-82
2023/12/24 05:34:59;;;;;;;4.65;4.25;;;9.60;99.90;;;;;;5007688;28;20217;-82
2023/12/24 05:37:32;;;;;;;3.50;3.20;;;9.60;99.90;;;;;;5004131;28;20202;-83
2023/12/24 05:40:05;;;;;;;3.67;3.15;;;9.50;99.90;;;;;;5004967;28;20226;-83
2023/12/24 05:42:37;;;;;;;3.10;2.80;;;9.60;99.90;;;;;;5004700;28;20214;-85
2023/12/24 05:45:05;;;;;;;3.25;2.95;;;9.60;99.90;;;;;;5012449;28;20214;-84
2023/12/24 05:47:32;;;;;;;3.65;3.35;;;9.60;99.90;;;;;;5013606;28;20644;-83
2023/12/24 05:49:59;;;;;;;4.00;2.72;;;9.60;99.90;;;;;;5010527;28;20230;-83
2023/12/24 05:52:26;;;;;;;6.03;3.40;;;9.60;99.90;;;;;;5008232;28;20206;-83
2023/12/24 05:54:55;;;;;;;3.05;2.60;;;9.60;99.90;;;;;;5009522;28;20194;-83
2023/12/24 05:57:24;;;;;;;4.63;3.17;;;9.60;99.90;;;;;;5002338;28;20221;-82
2023/12/24 05:59:51;;;;;;;3.47;3.17;;;9.60;99.90;;;;;;5011753;28;20233;-81
2023/12/24 06:02:21;;;;;;;3.40;3.10;;;9.60;99.90;;;;;;5002549;28;20213;-82
2023/12/24 06:04:48;;;;;;;5.05;3.63;;;9.60;99.90;;;;;;5003603;28;20237;-83
2023/12/24 06:07:21;;;;;;;6.03;3.40;;;9.70;99.90;;;;;;5005466;28;20233;-83
2023/12/24 06:09:48;;;;;;;3.25;2.95;;;9.70;99.90;;;;;;5006785;28;20692;-84
2023/12/24 06:12:17;;;;;;;3.88;3.47;;;9.70;99.90;;;;;;5005052;28;20214;-83
2023/12/24 06:14:44;;;;;;;3.38;3.17;;;9.70;99.90;;;;;;5004170;28;20557;-82
2023/12/24 06:17:11;;;;;;;5.28;2.55;;;9.70;99.90;;;;;;5000946;28;20211;-83
2023/12/24 06:19:40;;;;;;;3.60;3.30;;;9.60;99.90;;;;;;5006114;28;20226;-83
2023/12/24 06:22:07;;;;;;;3.00;2.72;;;9.50;99.90;;;;;;5002740;28;20198;-82
2023/12/24 06:24:35;;;;;;;3.65;3.35;;;9.70;99.90;;;;;;5012826;28;20197;-82
2023/12/24 06:27:01;;;;;;;5.10;3.08;;;9.70;99.90;;;;;;5009506;28;20205;-83
2023/12/24 06:29:30;;;;;;;2.90;2.70;;;9.70;99.90;;;;;;5027563;28;20213;-84
2023/12/24 06:31:57;;;;;;;5.07;3.40;;;9.70;99.90;;;;;;5018214;28;20190;-84
2023/12/24 06:34:24;;;;;;;3.83;3.10;;;9.70;99.90;;;;;;5019838;28;20270;-82
2023/12/24 06:36:51;;;;;;;3.00;2.80;;;9.70;99.90;;;;;;5017482;28;20206;-82
2023/12/24 06:39:18;;;;;;;2.45;2.13;;;9.70;99.90;;;;;;5017560;28;20210;-83
2023/12/24 06:41:47;;;;;;;3.85;3.35;;;9.70;99.90;;;;;;5016423;28;20198;-82
2023/12/24 06:44:16;;;;;;;2.45;2.25;;;9.70;99.90;;;;;;5019154;28;20194;-82
2023/12/24 06:46:44;;;;;;;4.65;3.53;;;9.70;99.90;;;;;;5013793;28;20210;-82
2023/12/24 06:49:11;;;;;;;3.42;3.13;;;9.70;99.90;;;;;;5013186;28;20234;-81
2023/12/24 06:51:38;;;;;;;3.67;3.33;;;9.70;99.90;;;;;;5013827;28;20201;-82
2023/12/24 06:54:05;;;;;;;3.40;3.10;;;9.70;99.90;;;;;;5014310;28;20284;-83
2023/12/24 06:56:32;;;;;;;4.18;3.78;;;9.70;99.90;;;;;;5012231;28;20218;-82
2023/12/24 06:58:59;;;;;;;3.63;3.33;;;9.60;99.90;;;;;;5014196;28;20210;-83
2023/12/24 07:01:26;;;;;;;4.47;4.05;;;9.70;99.90;;;;;;5003731;28;20197;-83
2023/12/24 07:03:54;;;;;;;4.45;4.05;;;9.80;99.90;;;;;;5004100;28;20206;-83
2023/12/24 07:06:24;;;;;;;3.95;3.60;;;9.70;99.90;;;;;;5012488;28;20206;-82
2023/12/24 07:08:51;;;;;;;4.60;3.30;;;9.80;99.90;;;;;;5005811;28;20234;-82
2023/12/24 07:11:20;;;;;;;3.88;3.45;;;9.80;99.90;;;;;;5014154;28;20270;-84
2023/12/24 07:13:47;;;;;;;3.70;3.40;;;9.80;99.90;;;;;;5028419;28;20181;-82
2023/12/24 07:16:14;;;;;;;4.03;3.30;;;9.80;99.90;;;;;;5019501;28;20186;-84
2023/12/24 07:18:41;;;;;;;3.58;3.20;;;9.80;99.90;;;;;;5008561;28;20296;-82
2023/12/24 07:21:12;;;;;;;3.10;2.90;;;9.80;99.90;;;;;;5002809;28;20234;-82
2023/12/24 07:23:41;;;;;;;3.92;3.63;;;9.80;99.90;;;;;;5000970;28;20190;-83
2023/12/24 07:26:11;;;;;;;3.65;3.35;;;9.80;99.90;;;;;;5009592;28;20203;-83
2023/12/24 07:28:38;;;;;;;3.13;2.83;;;9.80;99.90;;;;;;5006923;28;20247;-82
2023/12/24 07:31:08;;;;;;;2.53;2.33;;;9.90;99.90;;;;;;5008430;28;20257;-83
2023/12/24 07:33:43;;;;;;;3.63;3.33;;;9.90;99.90;;;;;;5015195;28;20241;-83
2023/12/24 07:36:14;;;;;;;3.58;3.28;;;9.90;99.90;;;;;;5014464;28;20221;-81
2023/12/24 07:38:41;;;;;;;3.95;3.65;;;9.90;99.90;;;;;;5013989;28;20201;-81
2023/12/24 07:41:09;;;;;;;4.03;2.90;;;9.90;99.90;;;;;;5017789;28;20235;-82
2023/12/24 07:43:42;;;;;;;3.28;3.00;;;9.90;99.90;;;;;;5014441;28;20257;-82
2023/12/24 07:46:15;;;;;;;2.70;2.50;;;10.10;99.90;;;;;;5010349;28;20222;-82
2023/12/24 07:48:42;;;;;;;3.45;3.15;;;9.90;99.90;;;;;;5008097;28;20312;-83
2023/12/24 07:51:11;;;;;;;3.30;3.00;;;9.90;99.90;;;;;;5021492;28;20267;-82
2023/12/24 07:53:38;;;;;;;3.97;3.35;;;10.00;99.90;;;;;;5017050;28;20219;-82
2023/12/24 07:56:10;;;;;;;3.35;3.05;;;10.00;99.90;;;;;;5026499;28;20209;-83
2023/12/24 07:58:38;;;;;;;3.28;2.72;;;10.00;99.90;;;;;;5022813;28;20241;-81
2023/12/24 08:01:05;;;;;;;3.80;3.50;;;10.00;99.90;;;;;;5017566;28;20221;-82
2023/12/24 08:03:32;;;;;;;4.05;3.60;;;10.00;99.90;;;;;;5013178;28;20218;-82
2023/12/24 08:05:59;;;;;;;4.20;3.80;;;10.00;99.90;;;;;;5011273;28;20217;-83
2023/12/24 08:08:28;;;;;;;5.40;3.22;;;10.10;99.90;;;;;;5006959;28;20232;-82
2023/12/24 08:10:55;;;;;;;4.50;4.10;;;10.10;99.90;;;;;;5004746;28;20229;-83
2023/12/24 08:13:22;;;;;;;3.30;3.10;;;10.10;99.90;;;;;;5010148;28;20206;-83
2023/12/24 08:15:50;;;;;;;3.47;3.15;;;10.10;99.90;;;;;;5009486;28;20206;-84
2023/12/24 08:18:17;;;;;;;3.00;2.80;;;10.10;99.90;;;;;;5008129;28;20289;-83
2023/12/24 08:20:44;;;;;;;3.80;3.50;;;10.20;99.90;;;;;;5009132;28;20261;-83
2023/12/24 08:23:11;;;;;;;3.80;3.42;;;10.20;99.90;;;;;;5003983;28;20202;-82
2023/12/24 08:25:40;;;;;;;5.13;4.63;;;10.20;99.90;;;;;;5006078;28;20198;-84
2023/12/24 08:28:07;;;;;;;3.05;2.75;;;10.20;99.90;;;;;;5013299;28;20229;-84
2023/12/24 08:30:34;;;;;;;2.67;2.47;;;10.20;99.90;;;;;;5012515;28;20209;-82
2023/12/24 08:33:01;;;;;;;2.60;2.40;;;10.20;99.90;;;;;;5017255;28;20206;-82
2023/12/24 08:35:29;;;;;;;3.45;3.15;;;10.20;99.90;;;;;;5015697;28;20225;-83
2023/12/24 08:37:56;;;;;;;2.78;2.58;;;10.20;99.90;;;;;;5012844;28;20202;-83
2023/12/24 08:40:27;;;;;;;3.20;2.90;;;10.30;99.90;;;;;;5022659;28;20239;-83
2023/12/24 08:42:55;;;;;;;3.25;2.95;;;10.30;99.90;;;;;;5001734;28;20213;-83
2023/12/24 08:45:23;;;;;;;3.42;3.13;;;10.30;99.90;;;;;;5006844;28;20214;-84
2023/12/24 08:47:53;;;;;;;2.50;2.30;;;10.30;99.90;;;;;;5005360;28;20206;-84
2023/12/24 08:50:21;;;;;;;2.83;2.63;;;10.40;99.90;;;;;;5009949;28;20233;-82
2023/12/24 08:52:48;;;;;;;3.10;2.90;;;10.30;99.90;;;;;;5009588;28;20229;-83
2023/12/24 08:55:16;;;;;;;5.65;4.60;;;10.40;99.90;;;;;;5007986;28;20641;-82
2023/12/24 08:57:43;;;;;;;3.50;2.97;;;10.40;99.90;;;;;;5009072;28;20213;-83
2023/12/24 09:00:13;;;;;;;3.50;3.20;;;10.40;99.90;;;;;;5006740;28;20226;-83
2023/12/24 09:02:43;;;;;;;4.50;4.10;;;10.40;99.90;;;;;;5005849;28;20715;-83
2023/12/24 09:05:10;;;;;;;3.60;3.28;;;10.50;99.90;;;;;;5006843;28;20206;-83
2023/12/24 09:07:37;;;;;;;3.90;3.60;;;10.50;99.90;;;;;;5009486;28;20228;-84
2023/12/24 09:10:05;;;;;;;3.33;2.95;;;10.50;99.90;;;;;;5006902;28;20258;-83
2023/12/24 09:12:32;;;;;;;3.90;3.40;;;10.60;99.90;;;;;;5014618;28;20216;-83
2023/12/24 09:14:59;;;;;;;3.92;3.35;;;10.50;99.90;;;;;;5015247;28;20202;-83
2023/12/24 09:17:28;;;;;;;4.05;3.72;;;10.50;99.90;;;;;;5007620;28;20210;-82
2023/12/24 09:19:55;;;;;;;3.90;3.50;;;10.60;99.90;;;;;;5017889;28;20209;-82
2023/12/24 09:22:22;;;;;;;3.53;3.22;;;10.60;99.90;;;;;;5018157;28;20282;-83
2023/12/24 09:24:49;;;;;;;3.65;3.35;;;10.60;99.90;;;;;;5019988;28;20205;-84
2023/12/24 09:27:16;;;;;;;3.45;3.10;;;10.70;99.90;;;;;;5014589;28;20292;-83
2023/12/24 09:29:43;;;;;;;2.80;2.60;;;10.70;99.90;;;;;;5006288;28;20226;-83
2023/12/24 09:32:16;;;;;;;3.35;3.15;;;10.70;99.90;;;;;;5008154;28;20274;-82
2023/12/24 09:34:44;;;;;;;7.45;2.80;;;10.70;99.90;;;;;;5009148;28;20225;-83
2023/12/24 09:37:12;;;;;;;2.85;2.65;;;10.80;99.90;;;;;;5008559;28;20260;-83
2023/12/24 09:39:39;;;;;;;2.97;2.47;;;10.80;99.90;;;;;;5006925;28;20222;-84
2023/12/24 09:42:06;;;;;;;1.98;1.80;;;10.80;99.90;;;;;;5009447;28;20237;-84
2023/12/24 09:44:34;;;;;;;2.15;1.95;;;10.80;99.90;;;;;;5007655;28;20405;-83
2023/12/24 09:47:01;;;;;;;2.83;2.63;;;10.90;99.90;;;;;;5011440;28;20218;-84
2023/12/24 09:49:28;;;;;;;2.80;2.60;;;10.90;99.90;;;;;;5007797;28;20257;-83
2023/12/24 09:52:20;;;;;;;3.40;3.20;;;10.90;99.90;;;;;;5013665;28;20233;-82
2023/12/24 09:54:48;;;;;;;2.88;2.58;;;10.90;99.90;;;;;;5011570;28;20202;-83
2023/12/24 09:57:15;;;;;;;3.20;3.00;;;10.90;99.90;;;;;;5011138;28;20209;-83
2023/12/24 09:59:42;;;;;;;6.03;2.80;;;10.90;99.90;;;;;;5007263;28;20324;-82
2023/12/24 10:02:09;;;;;;;3.22;3.03;;;10.90;99.90;;;;;;5004784;28;20210;-83
2023/12/24 10:04:36;;;;;;;3.13;2.83;;;11.00;99.90;;;;;;5004949;28;20201;-83
2023/12/24 10:07:06;;;;;;;2.80;2.60;;;11.00;99.90;;;;;;5005215;28;20206;-82
2023/12/24 10:09:44;;;;;;;3.42;3.13;;;11.00;99.90;;;;;;5007046;28;20221;-82
2023/12/24 10:12:12;;;;;;;3.80;3.50;;;11.00;99.90;;;;;;5007893;28;20213;-82
2023/12/24 10:14:42;;;;;;;3.17;2.97;;;11.00;99.90;;;;;;5009366;28;20221;-83
2023/12/24 10:17:12;;;;;;;2.70;2.50;;;11.10;99.90;;;;;;5011127;28;20229;-84
2023/12/24 10:19:39;;;;;;;3.25;2.95;;;11.10;99.90;;;;;;5007242;28;20298;-83
2023/12/24 10:22:08;;;;;;;3.28;2.78;;;11.20;99.90;;;;;;5007138;28;20198;-83
2023/12/24 10:24:38;;;;;;;3.78;2.80;;;11.10;99.90;;;;;;5006255;28;20233;-82
2023/12/24 10:27:08;;;;;;;5.47;2.58;;;11.20;99.90;;;;;;5012541;28;20214;-83
2023/12/24 10:29:36;;;;;;;2.75;2.55;;;11.30;99.90;;;;;;5005961;28;20248;-84
2023/12/24 10:32:03;;;;;;;2.92;2.63;;;11.20;99.90;;;;;;5005405;28;20206;-83
2023/12/24 10:34:32;;;;;;;3.10;2.88;;;11.10;99.90;;;;;;5016199;28;20186;-82
2023/12/24 10:37:00;;;;;;;3.90;3.10;;;11.20;99.90;;;;;;5017201;28;20189;-83
2023/12/24 10:39:28;;;;;;;2.35;2.15;;;11.20;99.90;;;;;;5014766;28;20435;-83
2023/12/24 10:41:56;;;;;;;2.42;2.22;;;11.20;99.90;;;;;;5009376;28;20210;-83
2023/12/24 10:44:28;;;;;;;2.38;2.28;;;11.20;99.90;;;;;;5014379;28;20237;-83
2023/12/24 10:46:55;;;;;;;2.78;2.58;;;11.20;99.90;;;;;;5009548;28;20228;-84
2023/12/24 10:49:22;;;;;;;3.15;2.95;;;11.20;99.90;;;;;;4999872;28;20237;-83
2023/12/24 10:51:49;;;;;;;3.30;3.00;;;11.20;99.90;;;;;;5007586;28;20230;-83
2023/12/24 10:54:17;;;;;;;5.35;3.38;;;11.20;99.90;;;;;;5018016;28;20216;-83
2023/12/24 10:56:57;;;;;;;3.63;3.35;;;11.20;99.90;;;;;;5006629;28;20258;-83
2023/12/24 10:59:41;;;;;;;4.40;3.90;;;11.30;99.90;;;;;;5014775;28;20288;-82
2023/12/24 11:02:13;;;;;;;4.05;3.75;;;11.20;99.90;;;;;;5009550;28;20198;-83
2023/12/24 11:04:44;;;;;;;5.25;4.32;;;11.20;99.90;;;;;;5009362;28;20208;-83
2023/12/24 11:07:36;;;;;;;4.15;3.75;;;11.20;99.90;;;;;;4999791;28;20431;-83
2023/12/24 11:10:06;;;;;;;4.35;3.95;;;11.20;99.90;;;;;;5007714;28;20489;-84
2023/12/24 11:12:36;;;;;;;5.43;4.97;;;11.20;99.90;;;;;;5011522;28;20260;-83
2023/12/24 11:15:04;;;;;;;5.70;5.20;;;11.30;99.90;;;;;;5013356;28;20212;-83
2023/12/24 11:17:50;;;;;;;5.10;4.70;;;11.30;99.90;;;;;;5020684;28;20225;-83
2023/12/24 11:20:30;;;;;;;4.78;4.38;;;11.40;99.90;;;;;;5015046;28;20229;-83
2023/12/24 11:23:16;;;;;;;6.18;5.57;;;11.40;99.90;;;;;;5015091;28;20194;-81
2023/12/24 11:25:44;;;;;;;5.40;4.90;;;11.30;99.90;;;;;;4999134;28;20209;-84
2023/12/24 11:28:28;;;;;;;3.42;3.13;;;11.40;99.90;;;;;;5004712;28;20661;-84
2023/12/24 11:31:08;;;;;;;4.28;3.88;;;11.40;99.90;;;;;;5004189;28;20221;-84
2023/12/24 11:33:48;;;;;;;3.78;3.47;;;11.30;99.90;;;;;;5018532;28;20213;-83
2023/12/24 11:36:18;;;;;;;3.38;3.08;;;11.40;99.90;;;;;;5015838;28;20644;-83
2023/12/24 11:38:56;;;;;;;3.45;3.25;;;11.40;99.90;;;;;;4999350;28;20210;-83
2023/12/24 11:41:24;;;;;;;3.10;2.90;;;11.40;99.90;;;;;;5006767;28;20206;-83
2023/12/24 11:43:57;;;;;;;3.50;3.20;;;11.40;99.90;;;;;;5011542;28;20210;-83
2023/12/24 11:46:25;;;;;;;3.10;2.80;;;11.40;99.90;;;;;;5007709;28;20293;-84
2023/12/24 11:48:55;;;;;;;4.25;3.88;;;11.50;99.90;;;;;;5006231;28;20230;-84
2023/12/24 11:51:24;;;;;;;3.33;3.03;;;11.50;99.90;;;;;;5006475;28;20633;-83
2023/12/24 11:54:01;;;;;;;3.55;2.90;;;11.50;99.90;;;;;;5010131;28;20201;-85
2023/12/24 11:56:30;;;;;;;2.85;2.65;;;11.50;99.90;;;;;;5014446;28;20257;-84
2023/12/24 11:59:02;;;;;;;2.80;2.60;;;11.50;99.90;;;;;;5016673;28;20202;-83
2023/12/24 12:01:31;;;;;;;2.55;2.35;;;11.50;99.90;;;;;;5014028;28;20190;-83
2023/12/24 12:03:59;;;;;;;2.58;2.38;;;11.50;99.90;;;;;;5016514;28;20210;-84
2023/12/24 12:06:27;;;;;;;3.20;3.00;;;11.50;99.90;;;;;;5017455;28;20194;-84
2023/12/24 12:08:54;;;;;;;2.38;2.17;;;11.60;99.90;;;;;;5021218;28;20236;-83
2023/12/24 12:11:21;;;;;;;3.05;2.85;;;11.60;99.90;;;;;;5007930;28;20207;-84
2023/12/24 12:13:49;;;;;;;2.63;2.42;;;11.60;99.90;;;;;;5018292;28;20201;-81
2023/12/24 12:16:19;;;;;;;2.90;2.65;;;11.60;99.90;;;;;;5018576;28;20194;-83
2023/12/24 12:18:46;;;;;;;5.40;2.85;;;11.60;99.90;;;;;;5019463;28;20682;-82
2023/12/24 12:21:16;;;;;;;3.30;3.10;;;11.60;99.90;;;;;;5007266;28;20258;-84
2023/12/24 12:23:44;;;;;;;3.05;2.83;;;11.60;99.90;;;;;;4992010;28;20206;-84
2023/12/24 12:26:11;;;;;;;2.38;2.28;;;11.60;99.90;;;;;;5006797;28;20203;-83
2023/12/24 12:28:38;;;;;;;2.95;2.75;;;11.60;99.90;;;;;;5001059;28;20213;-83
2023/12/24 12:31:05;;;;;;;3.10;2.80;;;11.70;99.90;;;;;;4996629;28;20218;-82
2023/12/24 12:33:34;;;;;;;2.50;2.30;;;11.60;99.90;;;;;;4996598;28;20216;-83
2023/12/24 12:36:06;;;;;;;2.50;2.30;;;11.70;99.90;;;;;;4993815;28;20238;-83
2023/12/24 12:38:33;;;;;;;2.65;2.45;;;11.70;99.90;;;;;;4990567;28;20206;-82
2023/12/24 12:41:00;;;;;;;2.65;2.45;;;11.70;99.90;;;;;;4995082;28;20219;-82
2023/12/24 12:43:28;;;;;;;2.88;2.40;;;11.70;99.90;;;;;;4997563;28;20285;-83
2023/12/24 12:45:55;;;;;;;2.60;2.40;;;11.70;99.90;;;;;;4987993;28;20310;-82
2023/12/24 12:48:22;;;;;;;3.10;2.75;;;11.70;99.90;;;;;;4987763;28;20211;-83
2023/12/24 12:50:50;;;;;;;2.33;2.13;;;11.70;99.90;;;;;;4986045;28;20238;-83
2023/12/24 12:53:24;;;;;;;2.40;2.20;;;11.70;99.90;;;;;;4988771;28;20222;-82
2023/12/24 12:55:51;;;;;;;3.05;2.50;;;11.70;99.90;;;;;;4988127;28;20662;-84
2023/12/24 12:58:18;;;;;;;3.50;3.20;;;11.80;99.90;;;;;;4995470;28;20230;-83
2023/12/24 13:00:46;;;;;;;4.60;4.20;;;11.80;99.90;;;;;;4999293;28;20229;-84
2023/12/24 13:03:13;;;;;;;8.80;5.68;;;11.80;99.90;;;;;;4999841;28;20202;-82
2023/12/24 13:05:40;;;;;;;4.47;4.07;;;11.80;99.90;;;;;;5006654;28;20213;-84
2023/12/24 13:08:18;;;;;;;5.25;4.70;;;11.90;99.90;;;;;;4983852;28;20201;-83
2023/12/24 13:10:46;;;;;;;6.95;3.83;;;11.90;99.90;;;;;;4980533;28;20218;-83
2023/12/24 13:13:18;;;;;;;4.38;3.95;;;11.90;99.90;;;;;;4994611;28;20274;-83
2023/12/24 13:15:46;;;;;;;4.68;4.28;;;11.90;99.90;;;;;;4993913;28;20212;-83
2023/12/24 13:18:18;;;;;;;5.20;4.70;;;11.90;99.90;;;;;;4990491;28;20210;-83
2023/12/24 13:20:46;;;;;;;4.30;3.78;;;11.70;99.90;;;;;;4991472;28;20265;-83
2023/12/24 13:23:13;;;;;;;4.50;3.38;;;11.90;99.90;;;;;;4993314;28;20207;-83
2023/12/24 13:25:43;;;;;;;6.68;3.90;;;11.90;99.90;;;;;;4993618;28;20824;-84
2023/12/24 13:28:11;;;;;;;4.18;3.88;;;11.90;99.90;;;;;;4994832;28;20217;-83
2023/12/24 13:30:39;;;;;;;4.03;3.65;;;11.90;99.90;;;;;;4994430;28;20233;-83
2023/12/24 13:33:06;;;;;;;8.07;4.35;;;11.90;99.90;;;;;;5006014;28;20206;-83
2023/12/24 13:35:35;;;;;;;3.33;3.05;;;11.90;99.90;;;;;;5009347;28;20214;-83
2023/12/24 13:38:03;;;;;;;3.90;3.60;;;11.90;99.90;;;;;;4995664;28;20270;-84
2023/12/24 13:40:33;;;;;;;3.83;2.80;;;11.90;99.90;;;;;;4995598;28;20298;-81
2023/12/24 13:43:01;;;;;;;3.28;3.00;;;11.90;99.90;;;;;;4994445;28;20340;-82
2023/12/24 13:45:28;;;;;;;4.00;3.63;;;11.90;99.90;;;;;;4994188;28;20206;-82
2023/12/24 13:47:55;;;;;;;5.68;3.17;;;11.90;99.90;;;;;;4992981;28;20211;-83
2023/12/24 13:50:23;;;;;;;4.07;3.40;;;11.90;99.90;;;;;;4983399;28;20233;-84
2023/12/24 13:52:50;;;;;;;3.90;2.92;;;11.90;99.90;;;;;;4989776;28;20206;-84
2023/12/24 13:55:17;;;;;;;3.00;2.80;;;11.90;99.90;;;;;;4997092;28;20202;-84
2023/12/24 13:57:45;;;;;;;2.80;2.55;;;11.80;99.90;;;;;;4998227;28;20271;-83
2023/12/24 14:00:15;;;;;;;4.00;3.22;;;11.90;99.90;;;;;;4998319;28;20217;-84
2023/12/24 14:02:42;;;;;;;4.70;3.10;;;12.00;99.90;;;;;;4991649;28;20301;-84
2023/12/24 14:05:12;;;;;;;3.20;2.97;;;11.90;99.90;;;;;;4999814;28;20257;-83
2023/12/24 14:07:41;;;;;;;3.53;3.22;;;11.90;99.90;;;;;;4995732;28;20237;-83
2023/12/24 14:10:11;;;;;;;2.58;2.38;;;11.90;99.90;;;;;;4993793;28;20234;-84
2023/12/24 14:12:38;;;;;;;2.70;2.50;;;11.90;99.90;;;;;;5002625;28;20206;-84
2023/12/24 14:15:13;;;;;;;3.40;3.10;;;11.80;99.90;;;;;;4990045;28;20203;-84
2023/12/24 14:17:42;;;;;;;3.58;2.95;;;11.90;99.90;;;;;;4990373;28;20707;-83
2023/12/24 14:20:12;;;;;;;2.80;2.60;;;11.90;99.90;;;;;;4988516;28;20230;-83
2023/12/24 14:22:39;;;;;;;3.38;3.10;;;11.90;99.90;;;;;;4990069;28;20220;-83
2023/12/24 14:25:08;;;;;;;3.83;2.97;;;11.90;99.90;;;;;;4988877;28;20207;-83
2023/12/24 14:27:35;;;;;;;3.70;3.40;;;11.90;99.90;;;;;;4987988;28;20519;-83
2023/12/24 14:30:02;;;;;;;4.15;3.58;;;11.90;99.90;;;;;;4985229;28;20277;-84
2023/12/24 14:32:29;;;;;;;3.47;3.17;;;11.90;99.90;;;;;;4992487;28;20210;-81
2023/12/24 14:34:58;;;;;;;3.83;3.53;;;11.90;99.90;;;;;;4989645;28;20227;-82
2023/12/24 14:37:25;;;;;;;4.47;3.90;;;11.90;99.90;;;;;;4987245;28;20592;-82
2023/12/24 14:39:52;;;;;;;4.72;4.32;;;11.90;99.90;;;;;;4989952;28;20249;-83
2023/12/24 14:42:21;;;;;;;7.05;6.25;;;11.90;99.90;;;;;;4997885;28;20199;-82
2023/12/24 14:44:49;;;;;;;7.32;5.97;;;11.90;99.90;;;;;;4994679;28;20206;-83
2023/12/24 14:47:24;;;;;;;4.25;3.90;;;11.90;99.90;;;;;;4988919;28;20198;-83
2023/12/24 14:49:58;;;;;;;4.53;4.10;;;11.90;99.90;;;;;;4988197;28;20240;-83
2023/12/24 14:52:31;;;;;;;7.10;4.50;;;11.90;99.90;;;;;;4989814;28;20211;-82
2023/12/24 14:54:59;;;;;;;4.75;3.83;;;11.90;99.90;;;;;;4989878;28;20207;-84
2023/12/24 14:57:27;;;;;;;5.93;3.70;;;11.90;99.90;;;;;;4988744;28;20580;-84
2023/12/24 14:59:55;;;;;;;9.27;4.07;;;12.00;99.90;;;;;;4997291;28;20277;-83
2023/12/24 15:02:24;;;;;;;6.50;6.00;;;11.90;99.90;;;;;;4995079;28;20206;-82
2023/12/24 15:04:52;;;;;;;5.18;4.68;;;12.00;99.90;;;;;;4997736;28;20191;-82
2023/12/24 15:07:23;;;;;;;6.60;3.42;;;12.00;99.90;;;;;;4992976;28;20202;-83
2023/12/24 15:09:50;;;;;;;3.90;3.60;;;12.00;99.90;;;;;;4993129;28;20286;-84
2023/12/24 15:12:19;;;;;;;5.60;4.25;;;12.00;99.90;;;;;;4990404;28;20238;-83
2023/12/24 15:14:46;;;;;;;4.53;3.72;;;12.00;99.90;;;;;;4988949;28;20211;-82
2023/12/24 15:17:15;;;;;;;5.80;5.30;;;12.00;99.90;;;;;;4988909;28;20203;-82
2023/12/24 15:19:45;;;;;;;4.32;3.33;;;12.00;99.90;;;;;;4991909;28;20237;-83
2023/12/24 15:22:19;;;;;;;3.20;2.58;;;12.00;99.90;;;;;;4986674;28;20230;-83
2023/12/24 15:24:48;;;;;;;2.70;2.50;;;12.00;99.90;;;;;;4982963;28;20270;-83
2023/12/24 15:27:15;;;;;;;3.22;2.75;;;12.00;99.90;;;;;;4989124;28;20238;-83
2023/12/24 15:29:42;;;;;;;4.35;2.60;;;12.10;99.90;;;;;;4987604;28;20226;-83
2023/12/24 15:32:09;;;;;;;2.15;1.50;;;12.10;99.90;;;;;;4987464;28;20299;-83
2023/12/24 15:34:37;;;;;;;2.65;2.10;;;12.10;99.90;;;;;;4986285;28;20274;-83
2023/12/24 15:37:04;;;;;;;3.58;1.90;;;12.10;99.90;;;;;;4985889;28;20216;-83
2023/12/24 15:39:31;;;;;;;1.80;1.25;;;12.20;99.90;;;;;;4986584;28;20317;-83
2023/12/24 15:42:00;;;;;;;2.97;2.03;;;12.20;99.90;;;;;;4986815;28;20207;-83
2023/12/24 15:44:27;;;;;;;1.80;1.70;;;12.20;99.90;;;;;;4987530;28;20241;-83
2023/12/24 15:46:54;;;;;;;2.28;1.40;;;12.20;99.90;;;;;;4989621;28;20214;-83
2023/12/24 15:49:21;;;;;;;1.45;1.35;;;12.20;99.90;;;;;;4995093;28;20229;-84
2023/12/24 15:51:48;;;;;;;2.67;1.40;;;12.20;99.90;;;;;;4989185;28;20269;-83
2023/12/24 15:54:15;;;;;;;1.17;1.10;;;12.20;99.90;;;;;;4989410;28;20210;-84
2023/12/24 15:56:42;;;;;;;2.33;1.23;;;12.20;99.90;;;;;;4995486;28;20213;-84
2023/12/24 15:59:11;;;;;;;2.75;1.30;;;12.20;99.90;;;;;;4985958;28;20283;-84
2023/12/24 16:01:43;;;;;;;1.25;1.13;;;12.20;99.90;;;;;;4993452;28;20269;-83
2023/12/24 16:04:10;;;;;;;2.38;2.17;;;12.20;99.90;;;;;;4997837;28;20221;-82
2023/12/24 16:06:37;;;;;;;2.47;2.20;;;12.20;99.90;;;;;;4982611;28;20214;-83
2023/12/24 16:09:05;;;;;;;2.95;1.45;;;12.10;99.90;;;;;;4993224;28;20214;-83
2023/12/24 16:11:34;;;;;;;1.83;1.35;;;12.00;99.90;;;;;;4994686;28;20231;-83
2023/12/24 16:14:01;;;;;;;1.80;1.38;;;12.20;99.90;;;;;;4991302;28;20234;-83
2023/12/24 16:16:30;;;;;;;1.23;1.13;;;12.20;99.90;;;;;;4992809;28;20642;-83
2023/12/24 16:18:57;;;;;;;1.88;1.40;;;12.20;99.90;;;;;;4995713;28;20217;-83
2023/12/24 16:28:12;;;;;;;1.60;1.50;;;12.20;99.90;;;;;;4986677;28;20226;-82
2023/12/24 16:30:39;;;;;;;1.33;1.23;;;12.30;99.90;;;;;;4992062;28;20230;-84